Time;durP1;ratioP1;P1;durP2;ratioP2;P2;SDS_P1;SDS_P2;PMS_P1;PMS_P2;Temp;Humidity;BMP_temperature;BMP_pressure;BME280_temperature;BME280_humidity;BME280_pressure;Samples;Min_cycle;Max_cycle;Signal;HPM_P1;HPM_P2
2023/05/07 00:00:48;;;;;;;13.65;9.68;;;12.40;99.90;;;;;;7585306;19;20030;-70
2023/05/07 00:03:21;;;;;;;11.17;9.00;;;12.50;99.90;;;;;;7579279;19;21190;-72
2023/05/07 00:05:53;;;;;;;14.68;8.57;;;12.40;99.90;;;;;;7604876;19;20478;-72
2023/05/07 00:08:26;;;;;;;16.23;8.77;;;12.30;99.90;;;;;;7589694;19;21343;-72
2023/05/07 00:10:58;;;;;;;16.05;9.27;;;12.30;99.90;;;;;;7583440;19;20043;-73
2023/05/07 00:13:35;;;;;;;11.40;8.38;;;12.30;99.90;;;;;;7579861;19;20425;-72
2023/05/07 00:16:07;;;;;;;17.20;9.32;;;12.20;99.90;;;;;;7579808;19;20037;-70
2023/05/07 00:18:39;;;;;;;14.98;8.48;;;12.20;99.90;;;;;;7599456;19;20029;-72
2023/05/07 00:21:12;;;;;;;15.80;9.18;;;12.00;99.90;;;;;;7596876;19;20015;-71
2023/05/07 00:23:44;;;;;;;12.27;7.97;;;12.00;99.90;;;;;;7580750;19;20022;-78
2023/05/07 00:26:16;;;;;;;14.55;8.32;;;12.00;99.90;;;;;;7572613;19;20014;-79
2023/05/07 00:28:51;;;;;;;13.13;7.97;;;12.00;99.90;;;;;;7593094;19;20123;-78
2023/05/07 00:31:23;;;;;;;9.70;8.00;;;12.10;99.90;;;;;;7589085;19;20015;-78
2023/05/07 00:33:56;;;;;;;17.37;8.73;;;12.10;99.90;;;;;;7596672;19;20029;-78
2023/05/07 00:36:28;;;;;;;12.23;8.10;;;12.10;99.90;;;;;;7579364;19;22732;-78
2023/05/07 00:39:03;;;;;;;12.23;9.55;;;12.00;99.90;;;;;;7587567;19;20019;-76
2023/05/07 00:41:35;;;;;;;15.88;8.90;;;12.00;99.90;;;;;;7589356;19;20048;-78
2023/05/07 00:44:07;;;;;;;12.52;8.85;;;12.00;99.90;;;;;;7593641;19;20511;-77
2023/05/07 00:46:40;;;;;;;11.25;7.85;;;11.90;99.90;;;;;;7592511;19;20081;-76
2023/05/07 00:49:12;;;;;;;12.03;9.07;;;12.00;99.90;;;;;;7584384;19;20022;-79
2023/05/07 00:51:45;;;;;;;14.60;9.77;;;11.90;99.90;;;;;;7600055;19;20018;-76
2023/05/07 00:54:19;;;;;;;14.95;10.52;;;11.90;99.90;;;;;;7582685;19;20518;-78
2023/05/07 00:56:54;;;;;;;12.55;9.10;;;11.80;99.90;;;;;;7566034;19;20022;-76
2023/05/07 00:59:26;;;;;;;16.63;9.82;;;11.80;99.90;;;;;;7586019;19;20023;-77
2023/05/07 01:01:59;;;;;;;13.85;8.45;;;11.80;99.90;;;;;;7585134;19;20621;-75
2023/05/07 01:04:31;;;;;;;14.00;8.15;;;11.80;99.90;;;;;;7578660;19;21162;-75
2023/05/07 01:07:05;;;;;;;11.18;7.97;;;11.80;99.90;;;;;;7585010;19;20015;-77
2023/05/07 01:09:37;;;;;;;11.25;8.38;;;11.80;99.90;;;;;;7577363;19;20026;-77
2023/05/07 01:12:11;;;;;;;18.27;8.32;;;11.80;99.90;;;;;;7575925;19;20550;-76
2023/05/07 01:14:43;;;;;;;10.70;8.18;;;11.80;99.90;;;;;;7582254;19;20022;-76
2023/05/07 01:17:16;;;;;;;14.68;7.78;;;11.70;99.90;;;;;;7567392;19;20653;-76
2023/05/07 01:19:52;;;;;;;11.43;8.15;;;11.70;99.90;;;;;;7588174;19;20075;-78
2023/05/07 01:22:31;;;;;;;15.75;8.73;;;11.70;99.90;;;;;;7583723;19;20613;-74
2023/05/07 01:25:05;;;;;;;11.82;8.25;;;11.70;99.90;;;;;;7594067;19;20014;-79
2023/05/07 01:27:38;;;;;;;15.43;8.38;;;11.70;99.90;;;;;;7571342;19;20022;-70
2023/05/07 01:30:10;;;;;;;17.70;9.30;;;11.70;99.90;;;;;;7547688;19;20014;-73
2023/05/07 01:32:50;;;;;;;12.93;8.43;;;11.60;99.90;;;;;;7571489;19;20015;-72
2023/05/07 01:35:27;;;;;;;14.45;8.85;;;11.60;99.90;;;;;;7575088;19;20490;-71
2023/05/07 01:38:00;;;;;;;13.90;8.98;;;11.50;99.90;;;;;;7582381;19;20018;-71
2023/05/07 01:40:34;;;;;;;11.68;8.40;;;11.50;99.90;;;;;;7571078;19;21350;-70
2023/05/07 01:43:06;;;;;;;13.38;7.97;;;11.60;99.90;;;;;;7572771;19;20086;-72
2023/05/07 01:45:41;;;;;;;12.38;8.02;;;11.60;99.90;;;;;;7575406;19;20014;-73
2023/05/07 01:48:15;;;;;;;9.95;7.75;;;11.60;99.90;;;;;;7592316;19;20979;-70
2023/05/07 01:50:47;;;;;;;12.38;8.50;;;11.60;99.90;;;;;;7572605;19;20023;-72
2023/05/07 01:53:20;;;;;;;12.13;7.93;;;11.50;99.90;;;;;;7562545;19;20034;-70
2023/05/07 01:55:52;;;;;;;16.52;9.50;;;11.50;99.90;;;;;;7559672;19;20029;-70
2023/05/07 01:58:26;;;;;;;19.58;8.30;;;11.50;99.90;;;;;;7575391;19;20015;-72
2023/05/07 02:00:58;;;;;;;11.30;8.30;;;11.50;99.90;;;;;;7577562;19;20124;-72
2023/05/07 02:03:31;;;;;;;10.43;8.18;;;11.40;99.90;;;;;;7581465;19;20446;-71
2023/05/07 02:06:13;;;;;;;12.02;8.68;;;11.40;99.90;;;;;;7576514;19;20025;-73
2023/05/07 02:08:47;;;;;;;18.77;8.70;;;11.40;99.90;;;;;;7573971;19;20019;-72
2023/05/07 02:11:20;;;;;;;15.85;7.97;;;11.30;99.90;;;;;;7562923;19;20592;-71
2023/05/07 02:13:53;;;;;;;11.27;9.07;;;11.50;99.90;;;;;;7590420;19;20011;-71
2023/05/07 02:16:25;;;;;;;13.55;8.63;;;11.40;99.90;;;;;;7590480;19;20018;-71
2023/05/07 02:18:58;;;;;;;11.82;8.35;;;11.50;99.90;;;;;;7566302;19;20103;-70
2023/05/07 02:21:30;;;;;;;11.73;7.95;;;11.50;99.90;;;;;;7575700;19;20022;-71
2023/05/07 02:24:02;;;;;;;10.02;7.10;;;11.40;99.90;;;;;;7588537;19;21822;-71
2023/05/07 02:26:35;;;;;;;11.73;7.53;;;11.40;99.90;;;;;;7570012;19;20033;-72
2023/05/07 02:29:07;;;;;;;8.63;7.18;;;11.30;99.90;;;;;;7580064;19;20039;-72
2023/05/07 02:31:41;;;;;;;9.50;7.40;;;11.40;99.90;;;;;;7569780;19;20050;-72
2023/05/07 02:34:15;;;;;;;;;;;11.30;99.90;;;;;;7588835;19;20081;-71
2023/05/07 02:36:47;;;;;;;15.43;8.25;;;11.30;99.90;;;;;;7588518;19;19938;-73
2023/05/07 02:39:23;;;;;;;15.35;8.55;;;11.30;99.90;;;;;;7573911;19;20817;-72
2023/05/07 02:41:55;;;;;;;12.57;8.18;;;11.20;99.90;;;;;;7576114;19;20018;-71
2023/05/07 02:44:31;;;;;;;13.15;8.00;;;11.30;99.90;;;;;;7578299;19;20054;-73
2023/05/07 02:47:04;;;;;;;9.88;6.65;;;11.20;99.90;;;;;;7577925;19;20013;-70
2023/05/07 02:49:37;;;;;;;13.45;7.97;;;11.20;99.90;;;;;;7582816;19;21821;-70
2023/05/07 02:52:10;;;;;;;11.15;8.02;;;11.20;99.90;;;;;;7596509;19;20021;-70
2023/05/07 02:54:42;;;;;;;13.80;9.30;;;11.30;99.90;;;;;;7581803;19;20018;-71
2023/05/07 02:57:14;;;;;;;14.95;8.93;;;11.40;99.90;;;;;;7583583;19;20049;-72
2023/05/07 02:59:46;;;;;;;16.70;8.70;;;11.30;99.90;;;;;;7585052;19;20010;-73
2023/05/07 03:02:20;;;;;;;14.25;8.50;;;11.20;99.90;;;;;;7578677;19;20027;-71
2023/05/07 03:04:52;;;;;;;12.95;8.07;;;11.20;99.90;;;;;;7592803;19;20357;-73
2023/05/07 03:07:25;;;;;;;8.98;7.22;;;11.20;99.90;;;;;;7582084;19;20700;-72
2023/05/07 03:09:57;;;;;;;12.02;7.82;;;11.20;99.90;;;;;;7575904;19;20992;-72
2023/05/07 03:12:30;;;;;;;9.30;7.68;;;11.20;99.90;;;;;;7578438;19;20015;-72
2023/05/07 03:15:02;;;;;;;14.75;8.00;;;11.20;99.90;;;;;;7585935;19;20010;-71
2023/05/07 03:17:36;;;;;;;11.18;8.18;;;11.10;99.90;;;;;;7585628;19;20015;-70
2023/05/07 03:20:09;;;;;;;9.95;6.65;;;11.10;99.90;;;;;;7578381;19;20018;-70
2023/05/07 03:22:43;;;;;;;14.45;7.53;;;11.10;99.90;;;;;;7579893;19;20027;-72
2023/05/07 03:25:15;;;;;;;9.18;7.07;;;11.10;99.90;;;;;;7567650;19;20082;-71
2023/05/07 03:27:47;;;;;;;11.00;7.15;;;11.10;99.90;;;;;;7574923;19;20018;-71
2023/05/07 03:30:22;;;;;;;11.07;7.90;;;11.10;99.90;;;;;;7579985;19;20018;-71
2023/05/07 03:32:55;;;;;;;11.05;7.18;;;11.20;99.90;;;;;;7583027;19;21075;-72
2023/05/07 03:35:27;;;;;;;12.00;6.95;;;11.10;99.90;;;;;;7586894;19;20018;-71
2023/05/07 03:38:01;;;;;;;12.10;7.70;;;11.10;99.90;;;;;;7578377;19;20025;-72
2023/05/07 03:40:36;;;;;;;8.93;7.10;;;11.10;99.90;;;;;;7584579;19;20022;-73
2023/05/07 03:43:10;;;;;;;9.25;7.72;;;11.00;99.90;;;;;;7593244;19;20026;-72
2023/05/07 03:45:46;;;;;;;8.25;7.20;;;11.00;99.90;;;;;;7558587;19;22242;-70
2023/05/07 03:48:23;;;;;;;8.60;6.78;;;11.00;99.90;;;;;;7588623;19;20021;-71
2023/05/07 03:50:58;;;;;;;14.23;7.57;;;10.90;99.90;;;;;;7592944;19;20023;-73
2023/05/07 03:53:34;;;;;;;10.57;7.68;;;10.90;99.90;;;;;;7574040;19;20352;-72
2023/05/07 03:56:07;;;;;;;10.52;7.32;;;10.80;99.90;;;;;;7588385;19;20021;-72
2023/05/07 03:58:41;;;;;;;10.88;7.88;;;10.70;99.90;;;;;;7591877;19;20081;-71
2023/05/07 04:01:15;;;;;;;10.88;7.72;;;10.80;99.90;;;;;;7571487;19;20018;-72
2023/05/07 04:03:47;;;;;;;10.82;7.57;;;10.80;99.90;;;;;;7593122;19;20189;-71
2023/05/07 04:06:20;;;;;;;10.80;7.10;;;10.80;99.90;;;;;;7601691;19;20096;-72
2023/05/07 04:08:53;;;;;;;11.93;7.70;;;10.70;99.90;;;;;;7593174;19;20044;-71
2023/05/07 04:11:26;;;;;;;10.30;7.97;;;10.70;99.90;;;;;;7596399;19;21016;-70
2023/05/07 04:13:59;;;;;;;9.27;7.10;;;10.80;99.90;;;;;;7581981;19;20018;-71
2023/05/07 04:16:31;;;;;;;10.88;7.38;;;10.80;99.90;;;;;;7577264;19;21373;-71
2023/05/07 04:19:04;;;;;;;11.25;8.07;;;10.80;99.90;;;;;;7581565;19;20098;-72
2023/05/07 04:21:36;;;;;;;10.30;8.03;;;10.80;99.90;;;;;;7593097;19;20878;-72
2023/05/07 04:24:09;;;;;;;9.90;7.72;;;10.70;99.90;;;;;;7574008;19;20018;-70
2023/05/07 04:26:41;;;;;;;10.37;8.43;;;10.70;99.90;;;;;;7552660;19;20018;-72
2023/05/07 04:29:13;;;;;;;11.10;7.15;;;10.80;99.90;;;;;;7568759;19;20018;-71
2023/05/07 04:31:46;;;;;;;9.25;7.57;;;10.80;99.90;;;;;;7579145;19;20609;-71
2023/05/07 04:34:18;;;;;;;11.30;7.00;;;10.80;99.90;;;;;;7584884;19;20102;-71
2023/05/07 04:36:51;;;;;;;10.20;7.72;;;10.80;99.90;;;;;;7596518;19;20049;-73
2023/05/07 04:39:24;;;;;;;10.15;7.35;;;10.90;99.90;;;;;;7583072;19;20105;-73
2023/05/07 04:41:56;;;;;;;9.02;7.28;;;10.90;99.90;;;;;;7589607;19;20026;-72
2023/05/07 04:44:30;;;;;;;10.95;7.88;;;10.90;99.90;;;;;;7586452;19;20430;-71
2023/05/07 04:47:03;;;;;;;9.82;7.20;;;11.00;99.90;;;;;;7594945;19;20010;-70
2023/05/07 04:49:35;;;;;;;10.80;7.50;;;11.00;99.90;;;;;;7586233;19;20021;-73
2023/05/07 04:52:08;;;;;;;12.40;7.93;;;11.10;99.90;;;;;;7579723;19;20050;-71
2023/05/07 04:54:40;;;;;;;13.70;8.10;;;11.00;99.90;;;;;;7592996;19;20172;-72
2023/05/07 04:57:13;;;;;;;12.30;8.50;;;11.10;99.90;;;;;;7578014;19;20558;-71
2023/05/07 04:59:46;;;;;;;10.93;8.48;;;11.10;99.90;;;;;;7580360;19;20018;-72
2023/05/07 05:02:19;;;;;;;10.90;8.10;;;11.10;99.90;;;;;;7589414;19;20026;-73
2023/05/07 05:04:52;;;;;;;12.48;8.23;;;11.20;99.90;;;;;;7585203;19;20256;-70
2023/05/07 05:07:24;;;;;;;14.88;8.82;;;11.20;99.90;;;;;;7506453;19;24910;-70
2023/05/07 05:09:58;;;;;;;10.27;8.50;;;11.30;99.90;;;;;;7554580;19;20122;-70
2023/05/07 05:12:30;;;;;;;13.50;8.85;;;11.40;99.90;;;;;;7585391;19;20445;-76
2023/05/07 05:15:05;;;;;;;9.63;7.70;;;11.50;99.90;;;;;;7594293;19;21480;-72
2023/05/07 05:17:37;;;;;;;10.02;8.10;;;11.50;99.90;;;;;;7573010;19;20022;-76
2023/05/07 05:20:11;;;;;;;11.35;7.43;;;11.40;99.90;;;;;;7559994;19;20022;-78
2023/05/07 05:22:45;;;;;;;12.00;8.25;;;11.40;99.90;;;;;;7555649;19;20032;-71
2023/05/07 05:25:18;;;;;;;14.75;8.38;;;11.40;99.90;;;;;;7552836;19;20842;-71
2023/05/07 05:27:51;;;;;;;15.63;8.40;;;11.40;99.90;;;;;;7589113;19;20019;-72
2023/05/07 05:30:23;;;;;;;10.30;9.15;;;11.50;99.90;;;;;;7596212;19;20105;-71
2023/05/07 05:32:56;;;;;;;12.68;8.57;;;11.70;99.90;;;;;;7579212;19;20990;-72
2023/05/07 05:35:31;;;;;;;11.07;8.45;;;11.80;99.90;;;;;;7589156;19;20014;-70
2023/05/07 05:38:07;;;;;;;9.90;8.00;;;12.00;99.90;;;;;;7590287;19;21011;-71
2023/05/07 05:40:39;;;;;;;10.73;8.77;;;12.10;99.90;;;;;;7572348;19;20062;-71
2023/05/07 05:43:11;;;;;;;10.52;8.50;;;12.20;99.90;;;;;;7593008;19;20094;-70
2023/05/07 05:45:44;;;;;;;11.55;8.45;;;12.20;99.90;;;;;;7568648;19;20022;-72
2023/05/07 05:48:16;;;;;;;9.70;7.53;;;12.30;99.90;;;;;;7579298;19;20026;-71
2023/05/07 05:50:48;;;;;;;10.93;8.27;;;12.40;99.90;;;;;;7579540;19;20021;-72
2023/05/07 05:53:23;;;;;;;12.93;8.82;;;12.50;99.90;;;;;;7576610;19;20025;-72
2023/05/07 05:55:55;;;;;;;11.65;7.47;;;12.60;99.90;;;;;;7563173;19;20729;-73
2023/05/07 05:58:27;;;;;;;12.15;7.72;;;12.80;99.90;;;;;;7575637;19;20025;-71
2023/05/07 06:01:05;;;;;;;10.25;7.53;;;12.90;99.90;;;;;;7586374;19;20345;-70
2023/05/07 06:03:38;;;;;;;9.38;7.10;;;13.00;99.90;;;;;;7590679;19;20606;-73
2023/05/07 06:06:17;;;;;;;11.95;6.97;;;13.20;99.90;;;;;;7589964;19;20038;-71
2023/05/07 06:08:50;;;;;;;8.63;6.93;;;13.30;99.90;;;;;;7581499;19;20086;-72
2023/05/07 06:11:28;;;;;;;9.20;7.70;;;13.50;99.90;;;;;;7567342;19;20285;-71
2023/05/07 06:14:00;;;;;;;17.15;7.63;;;13.60;99.90;;;;;;7576759;19;20636;-73
2023/05/07 06:16:35;;;;;;;10.20;7.15;;;13.70;99.90;;;;;;7590371;19;21012;-71
2023/05/07 06:19:10;;;;;;;9.50;6.93;;;13.80;99.90;;;;;;7584373;19;20015;-70
2023/05/07 06:21:44;;;;;;;9.02;7.55;;;13.90;99.90;;;;;;7586244;19;20018;-70
2023/05/07 06:24:16;;;;;;;7.47;6.37;;;14.10;99.90;;;;;;7556430;19;20010;-72
2023/05/07 06:26:49;;;;;;;10.43;7.18;;;14.30;99.90;;;;;;7588878;19;20021;-73
2023/05/07 06:29:21;;;;;;;9.75;6.72;;;14.40;99.90;;;;;;7571046;19;21547;-71
2023/05/07 06:31:54;;;;;;;8.93;6.10;;;14.60;99.90;;;;;;7583672;19;21007;-71
2023/05/07 06:34:28;;;;;;;11.10;6.50;;;14.70;99.90;;;;;;7563145;19;20026;-73
2023/05/07 06:37:01;;;;;;;8.93;6.43;;;14.90;99.90;;;;;;7578870;19;20039;-71
2023/05/07 06:39:45;;;;;;;9.20;5.70;;;15.00;99.90;;;;;;7563033;19;20724;-72
2023/05/07 06:42:17;;;;;;;6.10;5.50;;;15.20;99.90;;;;;;7580202;19;20109;-70
2023/05/07 06:44:52;;;;;;;5.65;4.88;;;15.30;99.90;;;;;;7585112;19;20019;-72
2023/05/07 06:47:25;;;;;;;5.97;5.07;;;15.50;99.90;;;;;;7594555;19;20015;-73
2023/05/07 06:49:59;;;;;;;10.05;5.13;;;15.70;99.90;;;;;;7584185;19;20051;-71
2023/05/07 06:52:35;;;;;;;6.78;4.93;;;15.90;99.90;;;;;;7582452;19;20405;-71
2023/05/07 06:55:09;;;;;;;6.72;5.13;;;16.10;99.90;;;;;;7576158;19;20141;-72
2023/05/07 06:57:41;;;;;;;5.18;4.35;;;16.30;99.90;;;;;;7583820;19;20506;-73
2023/05/07 07:00:14;;;;;;;5.10;4.28;;;16.40;99.90;;;;;;7574300;19;20601;-72
2023/05/07 07:02:55;;;;;;;8.32;4.13;;;16.60;99.90;;;;;;7583481;19;21181;-72
2023/05/07 07:05:31;;;;;;;7.25;4.30;;;16.70;99.90;;;;;;7579992;19;20014;-78
2023/05/07 07:08:06;;;;;;;6.55;4.25;;;16.80;99.90;;;;;;7556670;19;20015;-78
2023/05/07 07:10:38;;;;;;;5.90;4.30;;;16.90;99.90;;;;;;7557302;19;20018;-77
2023/05/07 07:13:11;;;;;;;5.30;4.07;;;17.00;99.90;;;;;;7594953;19;20037;-77
2023/05/07 07:15:44;;;;;;;6.97;3.57;;;17.20;99.90;;;;;;7579451;19;20014;-76
2023/05/07 07:18:17;;;;;;;3.80;3.43;;;17.30;99.90;;;;;;7589148;19;20015;-79
2023/05/07 07:20:50;;;;;;;;;;;17.40;99.90;;;;;;7592059;19;20034;-76
2023/05/07 07:23:23;;;;;;;5.80;3.55;;;17.60;99.90;;;;;;7587600;19;20360;-78
2023/05/07 07:25:56;;;;;;;7.57;3.63;;;17.80;99.90;;;;;;7579865;19;20894;-79
2023/05/07 07:28:28;;;;;;;7.32;4.03;;;17.90;99.90;;;;;;7598529;19;20026;-77
2023/05/07 07:31:01;;;;;;;5.57;3.90;;;18.00;99.90;;;;;;7586939;19;20026;-77
2023/05/07 07:33:35;;;;;;;5.47;3.67;;;18.10;99.90;;;;;;7590689;19;20018;-77
2023/05/07 07:36:07;;;;;;;5.35;3.70;;;18.30;99.90;;;;;;7594102;19;20020;-79
2023/05/07 07:38:39;;;;;;;5.15;3.53;;;18.40;99.90;;;;;;7595503;19;20126;-79
2023/05/07 07:41:12;;;;;;;11.10;4.25;;;18.40;99.90;;;;;;7579293;19;21046;-76
2023/05/07 07:43:46;;;;;;;9.07;3.88;;;18.50;99.90;;;;;;7590206;19;20905;-79
2023/05/07 07:46:22;;;;;;;7.30;3.72;;;18.50;99.90;;;;;;7598351;19;20987;-78
2023/05/07 07:48:55;;;;;;;5.47;3.67;;;18.60;99.90;;;;;;7599074;19;20034;-78
2023/05/07 07:51:27;;;;;;;5.32;4.43;;;18.70;99.90;;;;;;7592666;19;20318;-79
2023/05/07 07:54:02;;;;;;;7.45;4.45;;;18.60;99.90;;;;;;7582299;19;20028;-77
2023/05/07 07:56:36;;;;;;;5.88;4.45;;;18.70;99.20;;;;;;7591374;19;20040;-78
2023/05/07 07:59:11;;;;;;;8.57;4.88;;;18.60;99.50;;;;;;7599769;19;20495;-79
2023/05/07 08:01:45;;;;;;;5.78;3.35;;;18.80;99.90;;;;;;7593064;19;20152;-78
2023/05/07 08:04:18;;;;;;;4.63;3.85;;;18.80;99.90;;;;;;7584580;19;20045;-79
2023/05/07 08:06:50;;;;;;;4.07;3.60;;;19.00;99.90;;;;;;7563353;19;21304;-77
2023/05/07 08:09:22;;;;;;;7.05;4.10;;;19.10;99.90;;;;;;7556247;19;20026;-77
2023/05/07 08:11:56;;;;;;;4.88;3.53;;;19.30;99.90;;;;;;7578611;19;20382;-78
2023/05/07 08:14:28;;;;;;;5.78;3.88;;;19.40;99.40;;;;;;7534143;19;20015;-75
2023/05/07 08:17:01;;;;;;;5.00;4.17;;;19.50;98.30;;;;;;7568668;19;20522;-77
2023/05/07 08:19:34;;;;;;;7.38;4.38;;;19.50;97.30;;;;;;7558990;19;20290;-75
2023/05/07 08:22:10;;;;;;;7.00;4.13;;;19.50;96.60;;;;;;7584453;19;20010;-77
2023/05/07 08:24:43;;;;;;;6.63;3.92;;;19.50;95.70;;;;;;7580438;19;20031;-76
2023/05/07 08:27:16;;;;;;;6.27;4.23;;;19.60;95.90;;;;;;7548407;19;20027;-79
2023/05/07 08:29:48;;;;;;;5.30;4.43;;;19.50;95.40;;;;;;7582911;19;20026;-78
2023/05/07 08:32:22;;;;;;;7.20;3.95;;;19.60;93.80;;;;;;7567469;19;20062;-77
2023/05/07 08:34:55;;;;;;;5.40;4.13;;;19.70;94.50;;;;;;7573384;19;20022;-78
2023/05/07 08:37:28;;;;;;;5.60;4.75;;;19.80;94.10;;;;;;7548044;19;20014;-76
2023/05/07 08:40:00;;;;;;;6.00;4.53;;;19.70;93.50;;;;;;7573976;19;20483;-78
2023/05/07 08:42:37;;;;;;;4.72;4.22;;;19.90;94.50;;;;;;7578261;19;20029;-76
2023/05/07 08:45:11;;;;;;;5.80;4.35;;;19.90;92.80;;;;;;7580664;19;20022;-78
2023/05/07 08:47:52;;;;;;;8.50;4.53;;;19.90;91.70;;;;;;7585773;19;20015;-78
2023/05/07 08:50:27;;;;;;;7.60;3.90;;;19.80;90.40;;;;;;7574756;19;20530;-75
2023/05/07 08:53:00;;;;;;;7.75;4.22;;;19.90;90.40;;;;;;7581536;19;20022;-76
2023/05/07 08:55:33;;;;;;;7.20;3.77;;;20.00;89.40;;;;;;7587536;19;20120;-75
2023/05/07 08:58:05;;;;;;;6.88;4.50;;;20.10;89.50;;;;;;7569903;19;20325;-78
2023/05/07 09:00:41;;;;;;;4.53;3.63;;;20.20;90.50;;;;;;7577926;19;20026;-77
2023/05/07 09:03:14;;;;;;;4.03;3.33;;;20.20;88.30;;;;;;7570150;19;20566;-75
2023/05/07 09:05:50;;;;;;;4.05;3.35;;;20.30;87.90;;;;;;7510107;19;20029;-76
2023/05/07 09:08:28;;;;;;;7.70;4.15;;;20.30;88.20;;;;;;7561651;19;20780;-76
2023/05/07 09:11:03;;;;;;;5.20;3.58;;;20.40;87.70;;;;;;7536976;19;20025;-77
2023/05/07 09:13:37;;;;;;;5.07;3.50;;;20.50;88.20;;;;;;7505708;19;20033;-77
2023/05/07 09:16:13;;;;;;;7.22;4.18;;;20.50;87.40;;;;;;7514868;19;21236;-78
2023/05/07 09:18:51;;;;;;;4.55;3.40;;;20.50;87.50;;;;;;7560234;19;22077;-78
2023/05/07 09:21:24;;;;;;;42.90;6.45;;;20.50;88.30;;;;;;7523547;19;20021;-78
2023/05/07 09:23:59;;;;;;;10.40;5.10;;;20.50;87.90;;;;;;7536033;19;20541;-74
2023/05/07 09:26:40;;;;;;;7.05;4.18;;;20.50;88.50;;;;;;7552806;19;20591;-74
2023/05/07 09:29:16;;;;;;;6.18;4.18;;;20.50;88.40;;;;;;7538356;19;20037;-75
2023/05/07 09:31:49;;;;;;;4.63;3.70;;;20.60;88.40;;;;;;7552602;19;20323;-77
2023/05/07 09:34:23;;;;;;;;;;;20.60;87.20;;;;;;7583694;19;20014;-75
2023/05/07 09:36:57;;;;;;;4.50;3.50;;;20.60;83.90;;;;;;7552720;19;19928;-76
2023/05/07 09:39:47;;;;;;;4.47;3.10;;;20.60;85.00;;;;;;7548611;19;20010;-74
2023/05/07 09:42:26;;;;;;;4.57;3.17;;;20.70;85.10;;;;;;7535003;19;20471;-76
2023/05/07 09:45:05;;;;;;;8.65;3.13;;;20.80;85.90;;;;;;7575744;19;20582;-77
2023/05/07 09:47:45;;;;;;;3.17;2.88;;;20.90;83.60;;;;;;7570499;19;20064;-76
2023/05/07 09:50:21;;;;;;;4.80;3.33;;;21.00;82.60;;;;;;7571049;19;20022;-75
2023/05/07 09:52:55;;;;;;;3.97;3.10;;;21.10;82.50;;;;;;7579987;19;20058;-74
2023/05/07 09:55:29;;;;;;;3.85;2.85;;;21.20;81.60;;;;;;7556001;19;20023;-74
2023/05/07 09:58:03;;;;;;;3.70;2.70;;;21.20;80.70;;;;;;7561137;19;20070;-75
2023/05/07 10:00:37;;;;;;;9.35;3.53;;;21.30;79.50;;;;;;7537727;19;20018;-74
2023/05/07 10:03:15;;;;;;;4.75;2.83;;;21.40;78.40;;;;;;7558870;19;20011;-74
2023/05/07 10:05:59;;;;;;;5.65;2.58;;;21.50;78.60;;;;;;7551447;19;20644;-74
2023/05/07 10:08:32;;;;;;;3.83;2.80;;;21.50;78.80;;;;;;7573355;19;20022;-74
2023/05/07 10:11:06;;;;;;;5.18;2.70;;;21.60;78.50;;;;;;7559279;19;20136;-74
2023/05/07 10:13:39;;;;;;;11.98;3.40;;;21.70;77.20;;;;;;7541005;19;20090;-76
2023/05/07 10:16:14;;;;;;;6.05;3.65;;;21.70;77.90;;;;;;7542099;19;20064;-75
2023/05/07 10:18:51;;;;;;;6.95;3.22;;;21.80;77.50;;;;;;7528616;19;20024;-74
2023/05/07 10:21:29;;;;;;;5.53;3.50;;;21.90;78.90;;;;;;7533867;19;20014;-76
2023/05/07 10:24:13;;;;;;;7.47;3.28;;;22.00;78.00;;;;;;7557575;19;20014;-76
2023/05/07 10:26:50;;;;;;;7.30;3.80;;;22.20;77.90;;;;;;7564814;19;20026;-75
2023/05/07 10:29:26;;;;;;;8.35;4.13;;;22.20;77.00;;;;;;7549384;19;20014;-75
2023/05/07 10:32:13;;;;;;;5.45;3.55;;;22.00;78.00;;;;;;7551764;19;20022;-76
2023/05/07 10:34:50;;;;;;;6.40;3.28;;;22.10;77.40;;;;;;7544144;19;20030;-76
2023/05/07 10:37:24;;;;;;;4.05;2.70;;;22.10;76.90;;;;;;7545868;19;20928;-75
2023/05/07 10:39:57;;;;;;;4.90;2.92;;;22.20;77.90;;;;;;7525000;19;20010;-74
2023/05/07 10:42:31;;;;;;;5.68;3.30;;;22.20;76.00;;;;;;7523067;19;20622;-74
2023/05/07 10:45:15;;;;;;;4.65;2.92;;;22.20;75.30;;;;;;7549591;19;20019;-75
2023/05/07 10:48:07;;;;;;;6.93;3.28;;;22.10;74.20;;;;;;7561343;19;20018;-75
2023/05/07 10:51:21;;;;;;;4.45;2.60;;;22.20;75.70;;;;;;7532857;19;20027;-76
2023/05/07 10:54:12;;;;;;;3.75;3.20;;;22.60;75.30;;;;;;7514647;19;20022;-74
2023/05/07 10:56:52;;;;;;;4.95;3.25;;;;;;;;;;7500570;19;20509;-76
2023/05/07 10:59:34;;;;;;;2.65;2.40;;;;;;;;;;7508168;19;20007;-76
2023/05/07 11:02:16;;;;;;;3.65;2.50;;;;;;;;;;7505259;19;20025;-76
2023/05/07 11:05:21;;;;;;;3.13;2.60;;;;;;;;;;7578112;19;23043;-77
2023/05/07 11:08:05;;;;;;;2.63;2.30;;;;;;;;;;7566389;19;20010;-78
2023/05/07 11:10:54;;;;;;;4.07;2.65;;;;;;;;;;7584140;19;20649;-76
2023/05/07 11:13:48;;;;;;;3.90;2.28;;;22.90;72.90;;;;;;7571409;19;20014;-79
2023/05/07 11:16:32;;;;;;;5.30;2.30;;;24.10;66.80;;;;;;7558513;19;20490;-77
2023/05/07 11:19:13;;;;;;;;;;;23.90;66.60;;;;;;7588059;19;20625;-77
2023/05/07 11:21:51;;;;;;;4.70;2.70;;;23.80;66.10;;;;;;7574403;19;20028;-76
2023/05/07 11:24:46;;;;;;;4.35;2.78;;;23.80;67.30;;;;;;7573088;19;20043;-79
2023/05/07 11:27:23;;;;;;;6.18;3.40;;;23.90;67.70;;;;;;7567106;19;20015;-77
2023/05/07 11:29:56;;;;;;;5.30;2.90;;;23.80;67.40;;;;;;7564518;19;20025;-76
2023/05/07 11:32:31;;;;;;;6.00;3.13;;;23.60;67.80;;;;;;7587258;19;20015;-76
2023/05/07 11:35:05;;;;;;;4.45;3.00;;;23.70;68.70;;;;;;7579206;19;20021;-77
2023/05/07 11:37:38;;;;;;;6.13;3.97;;;23.70;68.80;;;;;;7563199;19;20026;-75
2023/05/07 11:40:13;;;;;;;4.25;3.78;;;23.60;68.10;;;;;;7572950;19;21104;-77
2023/05/07 11:42:46;;;;;;;4.15;3.45;;;23.70;69.60;;;;;;7572073;19;20051;-76
2023/05/07 11:45:25;;;;;;;3.63;2.85;;;24.00;70.20;;;;;;7571903;19;20025;-75
2023/05/07 11:47:57;;;;;;;5.13;3.17;;;24.20;68.10;;;;;;7581412;19;20022;-77
2023/05/07 11:50:30;;;;;;;7.93;3.70;;;24.30;67.80;;;;;;7570138;19;20720;-77
2023/05/07 11:53:08;;;;;;;6.82;4.00;;;24.50;66.60;;;;;;7579409;19;20057;-77
2023/05/07 11:55:40;;;;;;;6.72;3.47;;;24.40;66.20;;;;;;7565076;19;21144;-78
2023/05/07 11:58:20;;;;;;;6.45;3.20;;;24.40;66.90;;;;;;7583434;19;20030;-77
2023/05/07 12:00:53;;;;;;;7.03;3.80;;;24.70;67.40;;;;;;7577197;19;20023;-78
2023/05/07 12:03:26;;;;;;;6.45;4.13;;;24.90;66.90;;;;;;7579253;19;20018;-77
2023/05/07 12:06:05;;;;;;;5.80;3.90;;;24.90;65.20;;;;;;7587159;19;20014;-77
2023/05/07 12:08:39;;;;;;;4.90;3.50;;;24.90;65.50;;;;;;7566093;19;20533;-77
2023/05/07 12:11:30;;;;;;;8.48;4.05;;;25.00;64.80;;;;;;7558773;19;20486;-75
2023/05/07 12:14:02;;;;;;;6.35;4.03;;;25.10;64.30;;;;;;7565197;19;21278;-77
2023/05/07 12:16:40;;;;;;;5.80;3.78;;;25.00;64.70;;;;;;7563306;19;20053;-78
2023/05/07 12:19:13;;;;;;;7.00;4.00;;;25.20;66.20;;;;;;7529793;19;23500;-78
2023/05/07 12:21:47;;;;;;;7.78;4.22;;;25.40;64.60;;;;;;7548642;19;20045;-77
2023/05/07 12:24:19;;;;;;;6.83;3.80;;;25.60;65.10;;;;;;7532968;19;20049;-76
2023/05/07 12:26:53;;;;;;;5.53;4.80;;;25.70;64.20;;;;;;7577342;19;20021;-77
2023/05/07 12:29:25;;;;;;;5.22;3.72;;;25.50;62.50;;;;;;7585454;19;21164;-77
2023/05/07 12:31:58;;;;;;;6.95;5.07;;;25.40;62.30;;;;;;7580509;19;20029;-77
2023/05/07 12:34:31;;;;;;;7.65;3.95;;;25.60;62.50;;;;;;7571274;19;20018;-76
2023/05/07 12:37:03;;;;;;;4.53;4.13;;;25.50;63.50;;;;;;7575186;19;20006;-77
2023/05/07 12:39:36;;;;;;;5.20;3.90;;;25.40;63.40;;;;;;7531271;19;20028;-77
2023/05/07 12:42:14;;;;;;;4.63;4.20;;;25.40;63.10;;;;;;7583869;19;20065;-80
2023/05/07 12:44:46;;;;;;;6.65;3.90;;;25.30;62.80;;;;;;7585475;19;20908;-77
2023/05/07 12:47:20;;;;;;;4.63;3.90;;;25.10;62.40;;;;;;7573853;19;20077;-76
2023/05/07 12:49:54;;;;;;;5.38;3.75;;;25.20;63.10;;;;;;7531324;19;20162;-78
2023/05/07 12:52:27;;;;;;;4.10;3.70;;;25.30;62.40;;;;;;7534801;19;20642;-76
2023/05/07 12:55:07;;;;;;;5.75;3.50;;;25.30;62.20;;;;;;7553922;19;21742;-76
2023/05/07 12:57:41;;;;;;;5.47;3.78;;;25.20;62.90;;;;;;7556118;19;20010;-77
2023/05/07 13:00:14;;;;;;;5.97;4.05;;;25.20;62.70;;;;;;7573224;19;20022;-74
2023/05/07 13:02:47;;;;;;;4.55;3.70;;;25.20;62.80;;;;;;7592598;19;20015;-75
2023/05/07 13:05:19;;;;;;;13.32;3.63;;;25.20;62.80;;;;;;7584513;19;20011;-75
2023/05/07 13:07:55;;;;;;;3.95;3.20;;;25.30;62.50;;;;;;7552203;19;20015;-75
2023/05/07 13:10:28;;;;;;;4.13;3.55;;;25.40;62.80;;;;;;7558471;19;20018;-75
2023/05/07 13:13:01;;;;;;;5.53;3.90;;;25.40;62.00;;;;;;7577753;19;20018;-76
2023/05/07 13:15:33;;;;;;;6.93;3.47;;;25.40;62.30;;;;;;7582876;19;20014;-75
2023/05/07 13:18:06;;;;;;;5.95;3.85;;;25.60;62.70;;;;;;7581550;19;20022;-75
2023/05/07 13:20:38;;;;;;;6.43;4.20;;;25.50;61.60;;;;;;7577817;19;20591;-75
2023/05/07 13:23:10;;;;;;;5.13;3.93;;;25.30;61.20;;;;;;7569379;19;20022;-75